createdAt,value
2019-01-10T00:00:14.587Z,64.58
2019-01-10T00:02:45.823Z,55.50
2019-01-10T00:05:17.016Z,64.45
2019-01-10T00:07:47.936Z,59.55
2019-01-10T00:10:19.954Z,63.10
2019-01-10T00:12:51.720Z,55.92
2019-01-10T00:15:23.425Z,63.95
2019-01-10T00:17:54.423Z,64.67
2019-01-10T00:20:25.975Z,59.20
2019-01-10T00:22:57.707Z,56.37
2019-01-10T00:25:29.077Z,69.10
2019-01-10T00:28:00.133Z,57.05
2019-01-10T00:30:31.516Z,50.20
2019-01-10T00:33:02.610Z,57.00
2019-01-10T00:35:34.230Z,49.20
2019-01-10T00:38:04.860Z,41.33
2019-01-10T00:40:36.055Z,45.55
2019-01-10T00:43:07.709Z,42.20
2019-01-10T00:45:38.791Z,45.80
2019-01-10T00:48:09.941Z,43.28
2019-01-10T00:50:41.491Z,40.50
2019-01-10T00:53:12.869Z,41.63
2019-01-10T00:55:43.264Z,43.40
2019-01-10T00:58:15.207Z,40.40
2019-01-10T01:00:47.100Z,36.95
2019-01-10T01:03:18.166Z,31.23
2019-01-10T01:05:49.670Z,35.48
2019-01-10T01:08:24.232Z,29.05
2019-01-10T01:10:57.632Z,28.15
2019-01-10T01:13:29.145Z,26.45
2019-01-10T01:16:00.234Z,29.87
2019-01-10T01:18:31.813Z,28.40
2019-01-10T01:21:02.766Z,24.67
2019-01-10T01:23:55.416Z,25.68
2019-01-10T01:26:26.592Z,19.27
2019-01-10T01:28:58.525Z,23.00
2019-01-10T01:31:29.993Z,14.93
2019-01-10T01:34:01.703Z,17.02
2019-01-10T01:36:33.274Z,13.25
2019-01-10T01:39:06.335Z,14.20
2019-01-10T01:41:37.705Z,14.58
2019-01-10T01:44:08.791Z,13.00
2019-01-10T01:46:39.900Z,13.08
2019-01-10T01:49:11.445Z,11.73
2019-01-10T01:51:42.823Z,12.25
2019-01-10T01:54:14.418Z,11.30
2019-01-10T01:56:45.005Z,13.62
2019-01-10T01:59:15.690Z,10.85
2019-01-10T02:01:47.883Z,12.85
2019-01-10T02:04:18.212Z,9.80
2019-01-10T02:06:49.995Z,12.20
2019-01-10T02:09:21.601Z,12.68
2019-01-10T02:11:52.987Z,10.05
2019-01-10T02:14:24.420Z,11.15
2019-01-10T02:16:55.982Z,10.13
2019-01-10T02:19:27.211Z,9.98
2019-01-10T02:21:58.911Z,11.00
2019-01-10T02:24:29.668Z,12.25
2019-01-10T02:27:01.381Z,9.00
2019-01-10T02:29:32.697Z,8.08
2019-01-10T02:32:04.219Z,9.60
2019-01-10T02:34:35.595Z,10.15
2019-01-10T02:37:06.923Z,12.95
2019-01-10T02:39:38.317Z,9.38
2019-01-10T02:42:11.196Z,9.60
2019-01-10T02:44:42.849Z,11.15
2019-01-10T02:47:14.970Z,9.33
2019-01-10T02:49:46.256Z,9.70
2019-01-10T02:52:17.818Z,13.83
2019-01-10T02:54:48.752Z,8.80
2019-01-10T02:57:20.884Z,13.90
2019-01-10T02:59:51.403Z,11.22
2019-01-10T03:02:22.838Z,10.30
2019-01-10T03:04:54.082Z,11.57
2019-01-10T03:07:25.357Z,10.30
2019-01-10T03:09:55.799Z,9.85
2019-01-10T03:12:26.984Z,9.18
2019-01-10T03:14:57.405Z,9.23
2019-01-10T03:17:28.326Z,10.98
2019-01-10T03:19:59.384Z,9.90
2019-01-10T03:22:30.770Z,10.25
2019-01-10T03:25:01.143Z,15.65
2019-01-10T03:27:32.438Z,11.60
2019-01-10T03:30:04.131Z,13.25
2019-01-10T03:32:35.495Z,10.88
2019-01-10T03:35:08.250Z,9.50
2019-01-10T03:37:40.205Z,10.95
2019-01-10T03:40:14.518Z,9.73
2019-01-10T03:42:46.224Z,7.60
2019-01-10T03:45:18.455Z,10.78
2019-01-10T03:47:49.873Z,7.47
2019-01-10T03:50:22.193Z,9.48
2019-01-10T03:52:53.910Z,12.37
2019-01-10T03:55:25.315Z,14.07
2019-01-10T03:57:56.720Z,9.95
2019-01-10T04:00:27.983Z,10.55
2019-01-10T04:03:01.733Z,12.25
2019-01-10T04:05:32.686Z,11.15
2019-01-10T04:08:04.455Z,11.88
2019-01-10T04:10:35.741Z,9.38
2019-01-10T04:13:07.107Z,11.90
2019-01-10T04:15:38.111Z,12.82
2019-01-10T04:18:09.446Z,13.88
2019-01-10T04:20:40.645Z,9.45
2019-01-10T04:23:11.996Z,9.65
2019-01-10T04:25:43.564Z,17.20
2019-01-10T04:28:14.761Z,20.88
2019-01-10T04:30:46.602Z,11.03
2019-01-10T04:33:17.438Z,13.88
2019-01-10T04:35:49.093Z,10.65
2019-01-10T04:38:20.615Z,7.92
2019-01-10T04:40:52.323Z,13.40
2019-01-10T04:43:24.409Z,21.10
2019-01-10T04:45:56.131Z,11.33
2019-01-10T04:48:27.485Z,12.40
2019-01-10T04:50:58.249Z,11.85
2019-01-10T04:53:29.771Z,11.43
2019-01-10T04:56:00.959Z,10.95
2019-01-10T04:58:31.960Z,14.40
2019-01-10T05:01:03.426Z,11.40
2019-01-10T05:03:34.920Z,13.15
2019-01-10T05:06:05.671Z,12.68
2019-01-10T05:08:36.858Z,9.65
2019-01-10T05:11:07.511Z,11.00
2019-01-10T05:13:38.118Z,9.73
2019-01-10T05:16:09.471Z,10.65
2019-01-10T05:18:41.356Z,11.80
2019-01-10T05:21:12.292Z,10.15
2019-01-10T05:23:43.956Z,11.25
2019-01-10T05:26:15.785Z,10.70
2019-01-10T05:28:47.067Z,16.90
2019-01-10T05:31:18.153Z,10.00
2019-01-10T05:33:49.859Z,11.10
2019-01-10T05:36:21.044Z,10.28
2019-01-10T05:38:52.495Z,9.55
2019-01-10T05:41:24.053Z,13.95
2019-01-10T05:43:55.101Z,10.63
2019-01-10T05:46:26.724Z,8.78
2019-01-10T05:48:58.149Z,19.92
2019-01-10T05:51:29.185Z,13.22
2019-01-10T05:53:59.496Z,11.85
2019-01-10T05:56:30.532Z,11.12
2019-01-10T05:59:01.036Z,14.03
2019-01-10T06:01:33.793Z,14.70
2019-01-10T06:04:04.923Z,18.60
2019-01-10T06:06:36.484Z,10.23
2019-01-10T06:09:09.697Z,9.05
2019-01-10T06:11:40.293Z,10.85
2019-01-10T06:14:12.147Z,13.35
2019-01-10T06:16:45.172Z,28.83
2019-01-10T06:19:16.082Z,20.52
2019-01-10T06:21:47.442Z,15.08
2019-01-10T06:24:19.121Z,14.53
2019-01-10T06:26:50.262Z,24.85
2019-01-10T06:29:22.164Z,12.50
2019-01-10T06:31:53.017Z,12.85
2019-01-10T06:34:24.117Z,14.18
2019-01-10T06:36:55.149Z,12.98
2019-01-10T06:39:26.255Z,14.15
2019-01-10T06:41:57.358Z,18.75
2019-01-10T06:44:28.984Z,19.50
2019-01-10T06:47:00.664Z,13.08
2019-01-10T06:49:31.833Z,14.40
2019-01-10T06:52:03.374Z,13.53
2019-01-10T06:54:34.604Z,14.85
2019-01-10T06:57:05.925Z,16.17
2019-01-10T06:59:37.075Z,12.95
2019-01-10T07:02:09.279Z,13.55
2019-01-10T07:04:41.036Z,19.73
2019-01-10T07:07:12.392Z,8.83
2019-01-10T07:09:43.711Z,10.48
2019-01-10T07:12:14.867Z,12.10
2019-01-10T07:14:53.356Z,15.43
2019-01-10T07:17:17.585Z,12.60
2019-01-10T07:19:49.317Z,13.05
2019-01-10T07:22:20.789Z,20.45
2019-01-10T07:24:56.462Z,10.15
2019-01-10T07:27:27.465Z,16.52
2019-01-10T07:30:02.130Z,14.83
2019-01-10T07:32:33.367Z,20.48
2019-01-10T07:35:09.799Z,13.38
2019-01-10T07:37:40.863Z,15.90
2019-01-10T07:40:15.133Z,17.17
2019-01-10T07:42:46.830Z,16.35
2019-01-10T07:45:38.363Z,13.98
2019-01-10T07:48:11.106Z,13.05
2019-01-10T07:50:42.261Z,13.30
2019-01-10T07:53:13.488Z,16.02
2019-01-10T07:55:45.292Z,12.23
2019-01-10T07:58:16.569Z,18.65
2019-01-10T08:00:48.039Z,15.80
2019-01-10T08:03:18.487Z,14.55
2019-01-10T08:05:49.821Z,13.22
2019-01-10T08:08:21.477Z,19.95
2019-01-10T08:10:52.428Z,13.80
2019-01-10T08:13:23.205Z,12.98
2019-01-10T08:15:53.833Z,18.12
2019-01-10T08:18:24.969Z,11.22
2019-01-10T08:20:59.230Z,18.42
2019-01-10T08:23:30.296Z,10.93
2019-01-10T08:26:01.754Z,19.20
2019-01-10T08:28:32.893Z,15.83
2019-01-10T08:31:05.030Z,18.10
2019-01-10T08:33:36.190Z,10.25
2019-01-10T08:36:07.663Z,16.27
2019-01-10T08:38:37.805Z,19.37
2019-01-10T08:41:08.967Z,16.80
2019-01-10T08:43:41.195Z,14.73
2019-01-10T08:46:11.863Z,13.78
2019-01-10T08:48:43.046Z,14.38
2019-01-10T08:51:14.413Z,11.12
2019-01-10T08:53:53.627Z,11.57
2019-01-10T08:56:17.947Z,13.90
2019-01-10T08:58:49.361Z,13.43
2019-01-10T09:01:20.782Z,10.18
2019-01-10T09:03:52.352Z,10.15
2019-01-10T09:06:23.208Z,11.63
2019-01-10T09:08:55.120Z,10.00
2019-01-10T09:11:26.723Z,12.33
2019-01-10T09:13:57.887Z,10.25
2019-01-10T09:16:28.977Z,9.83
2019-01-10T09:19:00.551Z,13.65
2019-01-10T09:21:31.748Z,13.22
2019-01-10T09:24:02.434Z,18.25
2019-01-10T09:26:37.593Z,17.70
2019-01-10T09:29:07.748Z,11.95
2019-01-10T09:31:38.818Z,13.00
2019-01-10T09:34:10.616Z,12.82
2019-01-10T09:36:42.031Z,9.20
2019-01-10T09:39:13.784Z,10.93
2019-01-10T09:41:45.647Z,9.23
2019-01-10T09:44:16.595Z,10.23
2019-01-10T09:46:48.108Z,9.18
2019-01-10T09:49:19.209Z,13.88
2019-01-10T09:52:09.911Z,12.25
2019-01-10T09:54:41.477Z,12.23
2019-01-10T09:57:12.189Z,10.10
2019-01-10T09:59:44.235Z,10.65
2019-01-10T10:02:15.333Z,8.33
2019-01-10T10:04:46.650Z,6.90
2019-01-10T10:07:18.318Z,7.37
2019-01-10T10:09:49.564Z,7.35
2019-01-10T10:12:20.709Z,7.72
2019-01-10T10:14:51.305Z,5.80
2019-01-10T10:17:22.706Z,8.23
2019-01-10T10:19:54.601Z,6.28
2019-01-10T10:22:26.212Z,9.33
2019-01-10T10:24:57.926Z,17.55
2019-01-10T10:27:29.916Z,6.03
2019-01-10T10:30:01.199Z,8.93
2019-01-10T10:32:32.825Z,6.67
2019-01-10T10:35:03.731Z,6.62
2019-01-10T10:37:35.028Z,5.10
2019-01-10T10:40:09.901Z,8.63
2019-01-10T10:42:41.516Z,6.95
2019-01-10T10:45:14.493Z,8.43
2019-01-10T10:47:45.368Z,8.23
2019-01-10T10:50:35.638Z,6.90
2019-01-10T10:53:07.345Z,6.28
2019-01-10T10:55:38.657Z,12.55
2019-01-10T10:58:10.104Z,4.28
2019-01-10T11:00:40.810Z,8.28
2019-01-10T11:03:12.815Z,9.85
2019-01-10T11:05:44.524Z,4.78
2019-01-10T11:08:16.694Z,4.22
2019-01-10T11:10:47.802Z,7.55
2019-01-10T11:13:19.162Z,7.80
2019-01-10T11:15:50.763Z,7.20
2019-01-10T11:18:22.280Z,8.88
2019-01-10T11:20:53.660Z,4.92
2019-01-10T11:23:23.934Z,6.42
2019-01-10T11:25:55.056Z,7.28
2019-01-10T11:28:26.634Z,4.92
2019-01-10T11:30:57.652Z,9.35
2019-01-10T11:33:28.747Z,6.37
2019-01-10T11:35:59.956Z,5.33
2019-01-10T11:38:31.579Z,5.03
2019-01-10T11:41:02.788Z,5.33
2019-01-10T11:43:33.804Z,5.35
2019-01-10T11:46:05.409Z,3.85
2019-01-10T11:48:36.929Z,4.72
2019-01-10T11:51:08.387Z,4.47
2019-01-10T11:53:41.956Z,5.40
2019-01-10T11:56:12.920Z,7.00
2019-01-10T11:58:44.138Z,3.97
2019-01-10T12:01:15.604Z,4.67
2019-01-10T12:03:46.225Z,4.30
2019-01-10T12:06:17.578Z,4.40
2019-01-10T12:08:48.973Z,7.83
2019-01-10T12:11:20.316Z,4.30
2019-01-10T12:13:52.038Z,3.12
2019-01-10T12:16:28.589Z,2.73
2019-01-10T12:18:59.889Z,3.42
2019-01-10T12:21:31.488Z,4.20
2019-01-10T12:24:02.768Z,6.30
2019-01-10T12:26:33.635Z,7.50
2019-01-10T12:29:05.843Z,6.97
2019-01-10T12:31:37.283Z,5.53
2019-01-10T12:34:08.787Z,3.53
2019-01-10T12:36:40.216Z,4.50
2019-01-10T12:39:10.643Z,3.30
2019-01-10T12:41:41.303Z,6.67
2019-01-10T12:44:12.166Z,5.20
2019-01-10T12:46:42.639Z,8.77
2019-01-10T12:49:14.558Z,8.30
2019-01-10T12:51:45.171Z,7.03
2019-01-10T12:54:16.236Z,4.60
2019-01-10T12:56:48.518Z,5.53
2019-01-10T12:59:19.404Z,11.03
2019-01-10T13:01:50.645Z,9.10
2019-01-10T13:04:22.364Z,7.13
2019-01-10T13:06:53.265Z,4.50
2019-01-10T13:09:24.888Z,3.07
2019-01-10T13:11:56.636Z,9.07
2019-01-10T13:14:28.389Z,8.13
2019-01-10T13:16:59.827Z,4.37
2019-01-10T13:19:33.182Z,3.00
2019-01-10T13:22:04.071Z,6.13
2019-01-10T13:24:35.673Z,5.70
2019-01-10T13:27:07.339Z,4.17
2019-01-10T13:29:38.703Z,2.33
2019-01-10T13:32:10.158Z,3.50
2019-01-10T13:34:41.683Z,2.57
2019-01-10T13:37:13.293Z,4.17
2019-01-10T13:39:44.970Z,4.53
2019-01-10T13:42:16.206Z,3.63
2019-01-10T13:44:47.832Z,4.30
2019-01-10T13:47:19.058Z,3.30
2019-01-10T13:49:50.549Z,5.60
2019-01-10T13:52:21.109Z,5.60
2019-01-10T13:54:52.764Z,4.40
2019-01-10T13:57:23.599Z,4.03
2019-01-10T13:59:55.609Z,5.17
2019-01-10T14:02:27.501Z,4.57
2019-01-10T14:04:58.661Z,3.10
2019-01-10T14:07:30.433Z,4.50
2019-01-10T14:10:01.490Z,3.50
2019-01-10T14:12:32.917Z,4.60
2019-01-10T14:15:04.902Z,6.13
2019-01-10T14:20:06.770Z,3.70
2019-01-10T14:22:38.431Z,5.63
2019-01-10T14:25:09.867Z,3.83
2019-01-10T14:27:41.097Z,5.90
2019-01-10T14:30:33.810Z,6.00
2019-01-10T14:33:06.692Z,3.77
2019-01-10T14:35:38.167Z,6.23
2019-01-10T14:38:09.964Z,3.70
2019-01-10T14:40:41.866Z,7.53
2019-01-10T14:43:11.468Z,5.83
2019-01-10T14:45:43.205Z,4.43
2019-01-10T14:48:16.088Z,8.17
2019-01-10T14:50:45.496Z,7.03
2019-01-10T14:53:14.972Z,5.53
2019-01-10T14:55:44.448Z,4.40
2019-01-10T14:58:13.931Z,3.43
2019-01-10T15:00:43.740Z,4.67
2019-01-10T15:03:14.967Z,3.53
2019-01-10T15:05:44.500Z,6.47
2019-01-10T15:08:14.010Z,4.20
2019-01-10T15:10:43.415Z,9.03
2019-01-10T15:13:13.016Z,6.63
2019-01-10T15:15:44.292Z,5.37
2019-01-10T15:18:13.762Z,7.33
2019-01-10T15:20:43.264Z,6.00
2019-01-10T15:23:12.801Z,4.87
2019-01-10T15:25:44.024Z,3.70
2019-01-10T15:28:13.468Z,5.50
2019-01-10T15:30:42.899Z,5.17
2019-01-10T15:33:12.386Z,5.30
2019-01-10T15:35:41.833Z,5.00
2019-01-10T15:38:13.924Z,8.20
2019-01-10T15:40:42.628Z,6.90
2019-01-10T15:43:12.027Z,7.40
2019-01-10T15:45:41.441Z,6.87
2019-01-10T15:48:11.038Z,10.23
2019-01-10T15:50:40.476Z,7.13
2019-01-10T15:53:09.915Z,9.37
2019-01-10T15:55:39.344Z,6.13
2019-01-10T15:58:10.544Z,10.70
2019-01-10T16:00:41.780Z,8.30
2019-01-10T16:03:11.261Z,5.43
2019-01-10T16:05:40.681Z,12.23
2019-01-10T16:08:10.114Z,7.90
2019-01-10T16:10:39.513Z,6.90
2019-01-10T16:13:08.916Z,9.80
2019-01-10T16:15:40.904Z,7.37
2019-01-10T16:18:10.380Z,10.83
2019-01-10T16:20:39.825Z,9.93
2019-01-10T16:23:10.359Z,12.10
2019-01-10T16:25:39.847Z,11.80
2019-01-10T16:28:09.268Z,8.00
2019-01-10T16:30:38.673Z,12.83
2019-01-10T16:33:08.169Z,9.97
2019-01-10T16:35:37.588Z,14.40
2019-01-10T16:38:07.097Z,19.23
2019-01-10T16:40:36.502Z,14.60
2019-01-10T16:43:11.736Z,15.83
2019-01-10T16:45:37.220Z,15.53
2019-01-10T16:48:06.739Z,12.97
2019-01-10T16:50:37.618Z,11.70
2019-01-10T16:53:08.852Z,12.90
2019-01-10T16:55:38.277Z,10.30
2019-01-10T16:58:08.061Z,13.30
2019-01-10T17:00:39.365Z,14.50
2019-01-10T17:03:08.875Z,10.27
2019-01-10T17:05:38.307Z,16.17
2019-01-10T17:08:08.712Z,14.90
2019-01-10T17:10:39.591Z,11.33
2019-01-10T17:13:10.504Z,13.17
2019-01-10T17:15:40.022Z,15.57
2019-01-10T17:18:09.588Z,13.80
2019-01-10T17:20:39.279Z,24.40
2019-01-10T17:23:08.759Z,17.00
2019-01-10T17:25:38.268Z,22.13
2019-01-10T17:28:08.249Z,15.00
2019-01-10T17:30:39.209Z,24.00
2019-01-10T17:33:09.724Z,25.85
2019-01-10T17:35:40.236Z,19.40
2019-01-10T17:38:10.385Z,14.80
2019-01-10T17:40:41.071Z,11.57
2019-01-10T17:43:11.952Z,13.73
2019-01-10T17:45:42.891Z,8.00
2019-01-10T17:48:14.161Z,11.63
2019-01-10T17:50:44.067Z,8.43
2019-01-10T17:53:14.446Z,9.50
2019-01-10T17:55:45.358Z,9.13
2019-01-10T17:58:16.262Z,14.87
2019-01-10T18:00:46.688Z,12.30
2019-01-10T18:03:17.543Z,11.65
2019-01-10T18:05:48.197Z,15.45
2019-01-10T18:08:19.078Z,11.57
2019-01-10T18:10:49.814Z,12.50
2019-01-10T18:13:20.071Z,10.68
2019-01-10T18:15:50.381Z,14.15
2019-01-10T18:18:20.664Z,14.58
2019-01-10T18:20:53.042Z,11.85
2019-01-10T18:23:22.842Z,20.57
2019-01-10T18:25:53.715Z,17.60
2019-01-10T18:28:23.394Z,14.05
2019-01-10T18:30:53.602Z,13.50
2019-01-10T18:33:25.099Z,13.03
2019-01-10T18:35:55.853Z,17.05
2019-01-10T18:38:26.793Z,14.83
2019-01-10T18:40:57.535Z,13.65
2019-01-10T18:43:27.805Z,13.83
2019-01-10T18:45:59.364Z,16.75
2019-01-10T18:48:31.166Z,15.75
2019-01-10T18:51:02.032Z,14.58
2019-01-10T18:53:33.037Z,13.32
2019-01-10T18:56:04.268Z,16.27
2019-01-10T18:58:35.738Z,16.57
2019-01-10T19:01:07.221Z,14.03
2019-01-10T19:03:38.613Z,15.48
2019-01-10T19:06:09.859Z,14.45
2019-01-10T19:08:41.376Z,14.10
2019-01-10T19:11:12.164Z,13.43
2019-01-10T19:13:43.794Z,9.48
2019-01-10T19:16:15.079Z,12.07
2019-01-10T19:18:46.366Z,9.90
2019-01-10T19:21:19.497Z,11.30
2019-01-10T19:23:50.708Z,12.20
2019-01-10T19:26:21.798Z,10.30
2019-01-10T19:28:53.330Z,11.22
2019-01-10T19:31:29.439Z,8.70
2019-01-10T19:34:00.236Z,10.78
2019-01-10T19:36:30.993Z,13.08
2019-01-10T19:39:01.944Z,9.33
2019-01-10T19:41:33.471Z,9.00
2019-01-10T19:44:04.706Z,10.48
2019-01-10T19:46:36.236Z,11.75
2019-01-10T19:49:06.378Z,15.85
2019-01-10T19:51:37.943Z,11.20
2019-01-10T19:54:09.267Z,11.28
2019-01-10T19:56:40.754Z,7.42
2019-01-10T19:59:11.848Z,9.78
2019-01-10T20:01:43.029Z,12.50
2019-01-10T20:04:14.269Z,11.35
2019-01-10T20:06:45.573Z,10.85
2019-01-10T20:09:16.692Z,10.65
2019-01-10T20:11:48.559Z,9.28
2019-01-10T20:14:20.051Z,12.85
2019-01-10T20:16:51.314Z,10.50
2019-01-10T20:19:20.760Z,8.25
2019-01-10T20:21:50.260Z,8.60
2019-01-10T20:24:19.736Z,8.88
2019-01-10T20:26:49.202Z,9.78
2019-01-10T20:29:20.485Z,11.73
2019-01-10T20:31:49.917Z,14.43
2019-01-10T20:34:19.348Z,11.97
2019-01-10T20:36:48.836Z,12.68
2019-01-10T20:39:20.039Z,10.30
2019-01-10T20:41:49.629Z,15.58
2019-01-10T20:44:19.093Z,9.98
2019-01-10T20:46:48.727Z,19.42
2019-01-10T20:49:20.003Z,9.13
2019-01-10T20:51:49.409Z,11.48
2019-01-10T20:54:18.925Z,12.65
2019-01-10T20:56:48.399Z,10.48
2019-01-10T20:59:19.327Z,13.53
2019-01-10T21:01:48.727Z,10.38
2019-01-10T21:04:19.132Z,10.93
2019-01-10T21:06:48.653Z,12.65
2019-01-10T21:09:19.194Z,10.55
2019-01-10T21:11:48.677Z,17.42
2019-01-10T21:14:19.949Z,10.23
2019-01-10T21:16:49.384Z,12.53
2019-01-10T21:19:18.880Z,8.45
2019-01-10T21:21:48.288Z,11.73
2019-01-10T21:24:18.765Z,7.95
2019-01-10T21:26:48.203Z,14.25
2019-01-10T21:29:24.652Z,8.73
2019-01-10T21:31:54.254Z,11.70
2019-01-10T21:34:23.732Z,8.78
2019-01-10T21:36:53.223Z,8.00
2019-01-10T21:39:22.652Z,10.35
2019-01-10T21:41:52.096Z,9.05
2019-01-10T21:44:22.492Z,12.93
2019-01-10T21:46:51.898Z,8.80
2019-01-10T21:49:21.484Z,8.55
2019-01-10T21:51:53.993Z,9.10
2019-01-10T21:54:27.009Z,10.23
2019-01-10T21:56:58.048Z,9.23
2019-01-10T21:59:27.468Z,10.40
2019-01-10T22:01:57.179Z,6.70
2019-01-10T22:04:28.720Z,11.95
2019-01-10T22:06:58.264Z,9.33
2019-01-10T22:09:27.699Z,12.03
2019-01-10T22:11:57.099Z,13.03
2019-01-10T22:14:26.528Z,9.50
2019-01-10T22:16:55.972Z,12.35
2019-01-10T22:19:25.368Z,10.32
2019-01-10T22:21:55.900Z,8.73
2019-01-10T22:24:26.389Z,8.83
2019-01-10T22:26:55.809Z,9.85
2019-01-10T22:29:25.316Z,8.83
2019-01-10T22:31:54.794Z,8.83
2019-01-10T22:34:24.217Z,10.08
2019-01-10T22:37:00.241Z,10.48
2019-01-10T22:39:29.721Z,15.10
2019-01-10T22:41:59.311Z,7.22
2019-01-10T22:44:28.821Z,10.53
2019-01-10T22:46:58.293Z,8.33
2019-01-10T22:49:29.769Z,9.80
2019-01-10T22:52:00.376Z,7.95
2019-01-10T22:54:29.837Z,7.40
2019-01-10T22:56:59.274Z,17.07
2019-01-10T22:59:28.756Z,9.23
2019-01-10T23:02:00.756Z,9.08
2019-01-10T23:04:37.892Z,8.55
2019-01-10T23:07:20.698Z,9.28
2019-01-10T23:09:50.205Z,10.78
2019-01-10T23:12:20.820Z,10.32
2019-01-10T23:14:52.027Z,9.28
2019-01-10T23:17:22.128Z,10.93
2019-01-10T23:19:52.006Z,9.93
2019-01-10T23:22:21.478Z,12.03
2019-01-10T23:24:58.911Z,10.40
2019-01-10T23:27:28.364Z,8.75
2019-01-10T23:29:57.867Z,7.90
2019-01-10T23:32:27.372Z,10.93
2019-01-10T23:34:56.773Z,9.83
2019-01-10T23:37:27.398Z,9.70
2019-01-10T23:39:57.534Z,9.30
2019-01-10T23:42:26.989Z,9.38
2019-01-10T23:44:56.428Z,7.62
2019-01-10T23:47:25.899Z,10.15
2019-01-10T23:49:55.440Z,11.05
2019-01-10T23:52:24.864Z,8.28
2019-01-10T23:54:54.290Z,7.65
2019-01-10T23:57:24.072Z,7.22
2019-01-10T23:59:53.544Z,9.78
